Impacts METAR Board INFO
IDs:

KPDX - Portland Intl Arpt, OR, US

Updated at: 1357 UTC 19 Nov 2017
Potential Impact None Slight Moderate High
Time19/01Z 19/02Z 19/03Z 19/04Z 19/05Z 19/06Z 19/07Z 19/08Z 19/09Z 19/10Z 19/11Z 19/12Z 19/13Z
VIS10 10 10 10 10 10 9 1 1.5 2 6 6 10
CIG260 220 200 200 -- -- -- 2 2 4 4 5 5
CoverOVCBKNBKNBKNFEWCLRCLROVXBKNBKNOVCOVCOVC
FltCatVFRVFRVFRVFRVFRVFRVFRLIFRLIFRLIFRLIFRIFRIFR
WX--------------BRBRBRBRBR--
WDir1901601501801601501502001201601500120
WSpd4 5 6 3 6 4 4 3 3 3 4 0 5
WGst-- -- -- -- -- -- -- -- -- -- -- -- --
Raw hourly METARs
KPDX 190053Z 19004KT 10SM SCT200 OVC260 08/05 A3019 RMK AO2 SLP222 T00830050
KPDX 190153Z 16005KT 10SM BKN220 07/04 A3020 RMK AO2 SLP225 T00670044
KPDX 190253Z 15006KT 10SM BKN200 06/04 A3019 RMK AO2 SLP225 T00560044 50001
KPDX 190353Z 18003KT 10SM BKN200 05/03 A3019 RMK AO2 SLP223 T00500033
KPDX 190453Z 16006KT 10SM FEW190 04/03 A3019 RMK AO2 SLP223 T00440028
KPDX 190553Z 15004KT 10SM CLR 04/03 A3018 RMK AO2 SLP219 T00390028 10094 20039 58005
KPDX 190653Z 15004KT 9SM CLR 03/03 A3017 RMK AO2 SLP215 T00330028
KPDX 190753Z 20003KT 1SM R10R/2600V4500FT BR VV002 03/03 A3018 RMK AO2 SLP219 T00330033 401170022
KPDX 190853Z 12003KT 1 1/2SM R10R/2200V6000FT BR BKN002 03/03 A3017 RMK AO2 SLP216 T00280028 56002
KPDX 190953Z 16003KT 2SM BR SCT002 BKN004 03/03 A3016 RMK AO2 SLP212 T00280028
KPDX 191053Z 15004KT 6SM BR OVC004 03/03 A3014 RMK AO2 SLP205 T00330033
KPDX 191153Z 00000KT 6SM BR OVC005 03/03 A3014 RMK AO2 SLP205 T00330028 10039 20022 55010
KPDX 191253Z 12005KT 10SM OVC005 03/03 A3013 RMK AO2 SLP201 T00330028